createdAt,value
2023-06-10T00:01:37.837Z,15.85
2023-06-10T00:04:05.597Z,15.87
2023-06-10T00:06:37.057Z,15.86
2023-06-10T00:09:06.174Z,15.86
2023-06-10T00:11:33.721Z,15.87
2023-06-10T00:14:01.507Z,15.87
2023-06-10T00:16:29.089Z,15.85
2023-06-10T00:19:02.358Z,15.86
2023-06-10T00:21:29.757Z,15.88
2023-06-10T00:23:57.632Z,15.86
2023-06-10T00:26:24.807Z,15.84
2023-06-10T00:28:53.508Z,15.82
2023-06-10T00:31:21.912Z,15.76
2023-06-10T00:33:48.984Z,15.71
2023-06-10T00:36:16.191Z,15.69
2023-06-10T00:38:43.157Z,15.60
2023-06-10T00:41:10.228Z,15.58
2023-06-10T00:43:37.310Z,15.54
2023-06-10T00:46:04.481Z,15.49
2023-06-10T00:48:31.826Z,15.49
2023-06-10T00:51:00.764Z,15.48
2023-06-10T00:53:29.421Z,15.42
2023-06-10T00:55:56.521Z,15.40
2023-06-10T00:58:25.337Z,15.36
2023-06-10T01:00:53.130Z,15.30
2023-06-10T01:03:20.299Z,15.29
2023-06-10T01:06:01.776Z,15.24
2023-06-10T01:08:42.853Z,15.21
2023-06-10T01:11:18.884Z,15.21
2023-06-10T01:13:46.713Z,15.21
2023-06-10T01:16:14.082Z,15.18
2023-06-10T01:18:41.671Z,15.16
2023-06-10T01:21:10.425Z,15.10
2023-06-10T01:23:39.062Z,15.07
2023-06-10T01:26:11.749Z,15.02
2023-06-10T01:28:55.595Z,15.00
2023-06-10T01:31:35.394Z,14.98
2023-06-10T01:34:04.190Z,14.95
2023-06-10T01:36:33.217Z,14.90
2023-06-10T01:39:02.073Z,14.92
2023-06-10T01:41:29.977Z,14.94
2023-06-10T01:43:56.840Z,14.89
2023-06-10T01:46:24.118Z,14.85
2023-06-10T01:48:51.150Z,14.84
2023-06-10T01:51:18.125Z,14.83
2023-06-10T01:53:45.369Z,14.82
2023-06-10T01:56:17.800Z,14.77
2023-06-10T01:58:45.205Z,14.71
2023-06-10T02:01:12.439Z,14.66
2023-06-10T02:03:39.565Z,14.61
2023-06-10T02:06:06.619Z,14.57
2023-06-10T02:08:33.694Z,14.50
2023-06-10T02:11:01.261Z,14.49
2023-06-10T02:13:30.572Z,14.48
2023-06-10T02:15:58.316Z,14.46
2023-06-10T02:18:29.846Z,14.48
2023-06-10T02:20:56.885Z,14.47
2023-06-10T02:23:24.302Z,14.48
2023-06-10T02:25:51.260Z,14.51
2023-06-10T02:28:18.842Z,14.48
2023-06-10T02:30:48.053Z,14.46
2023-06-10T02:33:16.017Z,14.47
2023-06-10T02:35:44.294Z,14.45
2023-06-10T02:38:11.236Z,14.42
2023-06-10T02:40:38.425Z,14.38
2023-06-10T02:43:05.512Z,14.33
2023-06-10T02:45:33.308Z,14.27
2023-06-10T02:48:02.020Z,14.26
2023-06-10T02:50:29.429Z,14.24
2023-06-10T02:53:03.602Z,14.21
2023-06-10T02:55:31.833Z,14.12
2023-06-10T02:58:03.979Z,14.03
2023-06-10T03:00:32.155Z,13.96
2023-06-10T03:02:59.424Z,13.92
2023-06-10T03:05:32.370Z,13.88
2023-06-10T03:08:02.264Z,13.87
2023-06-10T03:10:30.888Z,13.84
2023-06-10T03:12:57.847Z,13.80
2023-06-10T03:15:26.099Z,13.78
2023-06-10T03:17:53.681Z,13.77
2023-06-10T03:20:20.841Z,13.74
2023-06-10T03:22:48.143Z,13.73
2023-06-10T03:25:15.944Z,13.69
2023-06-10T03:27:47.039Z,13.66
2023-06-10T03:30:15.172Z,13.66
2023-06-10T03:32:44.420Z,13.66
2023-06-10T03:35:14.726Z,13.66
2023-06-10T03:37:42.245Z,13.65
2023-06-10T03:40:09.930Z,13.66
2023-06-10T03:42:39.041Z,13.70
2023-06-10T03:45:07.287Z,13.72
2023-06-10T03:47:39.704Z,13.72
2023-06-10T03:50:10.617Z,13.72
2023-06-10T03:52:40.233Z,13.70
2023-06-10T03:55:08.348Z,13.69
2023-06-10T03:57:35.814Z,13.71
2023-06-10T04:00:07.809Z,13.71
2023-06-10T04:02:48.426Z,13.75
2023-06-10T04:05:27.562Z,13.75
2023-06-10T04:07:54.592Z,13.77
2023-06-10T04:10:21.820Z,13.80
2023-06-10T04:12:48.972Z,13.80
2023-06-10T04:15:16.201Z,13.82
2023-06-10T04:17:44.133Z,13.82
2023-06-10T04:20:12.258Z,13.87
2023-06-10T04:22:43.761Z,13.89
2023-06-10T04:25:11.739Z,13.90
2023-06-10T04:27:40.157Z,13.93
2023-06-10T04:30:07.736Z,13.96
2023-06-10T04:32:36.945Z,13.99
2023-06-10T04:35:04.881Z,14.03
2023-06-10T04:37:32.374Z,14.04
2023-06-10T04:40:00.431Z,14.08
2023-06-10T04:42:28.359Z,14.13
2023-06-10T04:44:55.535Z,14.16
2023-06-10T04:47:22.468Z,14.19
2023-06-10T04:49:49.899Z,14.21
2023-06-10T04:52:19.234Z,14.23
2023-06-10T04:54:47.005Z,14.26
2023-06-10T04:57:13.921Z,14.30
2023-06-10T04:59:40.851Z,14.35
2023-06-10T05:02:07.887Z,14.37
2023-06-10T05:04:35.169Z,14.42
2023-06-10T05:07:02.035Z,14.45
2023-06-10T05:09:28.914Z,14.50
2023-06-10T05:11:55.871Z,14.52
2023-06-10T05:14:23.028Z,14.54
2023-06-10T05:16:50.358Z,14.57
2023-06-10T05:19:20.624Z,14.65
2023-06-10T05:21:47.691Z,14.71
2023-06-10T05:24:14.973Z,14.79
2023-06-10T05:26:42.323Z,14.84
2023-06-10T05:29:10.379Z,14.88
2023-06-10T05:31:37.416Z,14.93
2023-06-10T05:34:04.502Z,14.99
2023-06-10T05:36:31.466Z,15.04
2023-06-10T05:38:58.337Z,15.10
2023-06-10T05:41:25.301Z,15.14
2023-06-10T05:43:52.225Z,15.22
2023-06-10T05:46:19.203Z,15.30
2023-06-10T05:48:46.271Z,15.39
2023-06-10T05:51:13.188Z,15.47
2023-06-10T05:53:40.842Z,15.51
2023-06-10T05:56:07.941Z,15.54
2023-06-10T05:58:34.982Z,15.58
2023-06-10T06:01:01.940Z,15.69
2023-06-10T06:03:30.161Z,15.80
2023-06-10T06:05:57.212Z,15.85
2023-06-10T06:08:24.153Z,15.98
2023-06-10T06:10:51.606Z,16.10
2023-06-10T06:13:18.711Z,16.13
2023-06-10T06:15:46.081Z,16.13
2023-06-10T06:18:13.106Z,16.19
2023-06-10T06:20:40.353Z,16.29
2023-06-10T06:23:07.435Z,16.39
2023-06-10T06:25:35.056Z,16.45
2023-06-10T06:28:02.125Z,16.45
2023-06-10T06:30:29.040Z,16.56
2023-06-10T06:32:56.561Z,16.64
2023-06-10T06:35:23.551Z,16.77
2023-06-10T06:37:50.691Z,16.80
2023-06-10T06:40:22.724Z,16.80
2023-06-10T06:42:50.176Z,16.82
2023-06-10T06:45:35.803Z,16.91
2023-06-10T06:48:03.715Z,16.96
2023-06-10T06:50:30.716Z,17.02
2023-06-10T06:52:57.643Z,17.11
2023-06-10T06:55:24.465Z,17.23
2023-06-10T06:57:51.336Z,17.35
2023-06-10T07:00:18.813Z,17.49
2023-06-10T07:02:45.993Z,17.60
2023-06-10T07:05:13.322Z,17.58
2023-06-10T07:07:40.783Z,17.58
2023-06-10T07:10:08.166Z,17.72
2023-06-10T07:12:35.071Z,17.90
2023-06-10T07:15:02.055Z,17.99
2023-06-10T07:17:29.076Z,18.05
2023-06-10T07:19:58.527Z,18.04
2023-06-10T07:22:25.635Z,18.01
2023-06-10T07:24:53.090Z,18.08
2023-06-10T07:27:20.132Z,18.14
2023-06-10T07:29:47.180Z,18.18
2023-06-10T07:32:14.098Z,18.27
2023-06-10T07:34:40.987Z,18.33
2023-06-10T07:37:08.128Z,18.42
2023-06-10T07:39:35.197Z,18.59
2023-06-10T07:42:02.430Z,18.57
2023-06-10T07:44:30.267Z,18.63
2023-06-10T07:46:58.965Z,18.77
2023-06-10T07:49:25.944Z,18.88
2023-06-10T07:51:56.131Z,19.01
2023-06-10T07:54:23.174Z,19.06
2023-06-10T07:56:50.415Z,19.22
2023-06-10T07:59:17.365Z,19.21
2023-06-10T08:01:44.356Z,19.34
2023-06-10T08:04:12.614Z,19.40
2023-06-10T08:06:39.804Z,19.58
2023-06-10T08:09:06.714Z,19.62
2023-06-10T08:11:33.692Z,19.73
2023-06-10T08:14:00.619Z,19.98
2023-06-10T08:16:27.548Z,20.17
2023-06-10T08:18:55.951Z,20.32
2023-06-10T08:21:23.057Z,20.48
2023-06-10T08:23:54.230Z,20.53
2023-06-10T08:26:21.351Z,20.57
2023-06-10T08:28:48.401Z,20.57
2023-06-10T08:31:15.839Z,20.61
2023-06-10T08:33:43.694Z,20.79
2023-06-10T08:36:10.693Z,20.95
2023-06-10T08:38:37.812Z,20.97
2023-06-10T08:41:06.755Z,20.98
2023-06-10T08:43:38.654Z,21.12
2023-06-10T08:46:06.642Z,21.32
2023-06-10T08:48:37.003Z,21.30
2023-06-10T08:51:05.786Z,21.38
2023-06-10T08:53:37.626Z,21.61
2023-06-10T08:56:07.307Z,21.76
2023-06-10T08:58:36.544Z,21.88
2023-06-10T09:01:03.672Z,21.92
2023-06-10T09:03:31.699Z,21.86
2023-06-10T09:05:59.160Z,21.97
2023-06-10T09:08:26.186Z,21.99
2023-06-10T09:10:53.242Z,22.12
2023-06-10T09:13:20.446Z,22.18
2023-06-10T09:15:47.508Z,22.26
2023-06-10T09:18:14.611Z,22.32
2023-06-10T09:20:44.198Z,22.33
2023-06-10T09:23:11.152Z,22.48
2023-06-10T09:25:39.760Z,22.66
2023-06-10T09:28:15.023Z,22.76
2023-06-10T09:30:42.747Z,22.69
2023-06-10T09:33:18.731Z,22.82
2023-06-10T09:35:50.651Z,22.83
2023-06-10T09:38:22.919Z,22.98
2023-06-10T09:40:54.926Z,23.15
2023-06-10T09:43:22.478Z,23.18
2023-06-10T09:45:51.075Z,23.18
2023-06-10T09:48:18.129Z,23.31
2023-06-10T09:50:46.537Z,23.50
2023-06-10T09:53:13.602Z,23.54
2023-06-10T09:55:42.295Z,23.52
2023-06-10T09:58:09.234Z,23.65
2023-06-10T10:00:36.367Z,23.73
2023-06-10T10:03:03.485Z,23.90
2023-06-10T10:05:31.213Z,23.80
2023-06-10T10:07:58.278Z,23.73
2023-06-10T10:10:25.255Z,23.68
2023-06-10T10:12:57.608Z,23.61
2023-06-10T10:15:29.876Z,23.73
2023-06-10T10:18:03.742Z,24.04
2023-06-10T10:20:34.409Z,24.29
2023-06-10T10:23:04.332Z,24.22
2023-06-10T10:25:36.074Z,24.26
2023-06-10T10:28:13.331Z,24.36
2023-06-10T10:30:47.877Z,24.43
2023-06-10T10:33:24.385Z,24.49
2023-06-10T10:35:52.454Z,24.45
2023-06-10T10:38:20.756Z,24.47
2023-06-10T10:40:48.648Z,24.77
2023-06-10T10:43:17.102Z,24.71
2023-06-10T10:45:47.341Z,24.61
2023-06-10T10:48:16.270Z,24.76
2023-06-10T10:50:43.215Z,24.99
2023-06-10T10:53:10.247Z,24.90
2023-06-10T10:55:37.395Z,25.10
2023-06-10T10:58:06.883Z,25.04
2023-06-10T11:00:39.340Z,25.00
2023-06-10T11:03:13.471Z,25.04
2023-06-10T11:05:49.410Z,24.92
2023-06-10T11:08:34.617Z,24.99
2023-06-10T11:11:01.965Z,25.16
2023-06-10T11:13:28.957Z,25.12
2023-06-10T11:15:59.271Z,25.08
2023-06-10T11:18:30.537Z,25.03
2023-06-10T11:21:03.732Z,25.12
2023-06-10T11:23:32.169Z,25.27
2023-06-10T11:26:33.773Z,25.36
2023-06-10T11:29:01.010Z,25.27
2023-06-10T11:31:31.932Z,25.05
2023-06-10T11:34:04.567Z,25.31
2023-06-10T11:36:33.189Z,25.58
2023-06-10T11:39:02.935Z,25.71
2023-06-10T11:41:32.099Z,25.75
2023-06-10T11:44:09.457Z,25.81
2023-06-10T11:46:37.386Z,26.06
2023-06-10T11:49:06.452Z,25.93
2023-06-10T11:51:42.078Z,26.07
2023-06-10T11:54:12.108Z,26.00
2023-06-10T11:56:39.093Z,25.98
2023-06-10T11:59:10.762Z,25.89
2023-06-10T12:01:44.343Z,25.78
2023-06-10T12:04:14.382Z,25.54
2023-06-10T12:06:49.237Z,25.14
2023-06-10T12:09:27.410Z,24.97
2023-06-10T12:12:01.066Z,25.25
2023-06-10T12:15:07.320Z,25.23
2023-06-10T12:17:35.605Z,25.36
2023-06-10T12:20:23.732Z,25.39
2023-06-10T12:22:50.798Z,24.98
2023-06-10T12:25:17.777Z,24.96
2023-06-10T12:27:55.185Z,25.34
2023-06-10T12:30:23.415Z,25.31
2023-06-10T12:32:51.309Z,25.15
2023-06-10T12:35:20.963Z,25.33
2023-06-10T12:38:08.149Z,25.35
2023-06-10T12:40:38.414Z,25.18
2023-06-10T12:43:05.601Z,25.21
2023-06-10T12:45:44.637Z,25.09
2023-06-10T12:48:13.783Z,25.23
2023-06-10T12:50:42.715Z,24.84
2023-06-10T12:53:12.513Z,24.78
2023-06-10T12:55:39.769Z,24.61
2023-06-10T12:58:06.845Z,24.61
2023-06-10T13:00:36.199Z,24.83
2023-06-10T13:03:04.283Z,24.95
2023-06-10T13:05:31.416Z,24.74
2023-06-10T13:07:59.213Z,24.81
2023-06-10T13:10:26.756Z,24.77
2023-06-10T13:12:55.809Z,24.76
2023-06-10T13:15:23.274Z,24.88
2023-06-10T13:17:51.896Z,24.93
2023-06-10T13:20:20.268Z,25.12
2023-06-10T13:22:48.756Z,25.10
2023-06-10T13:25:16.108Z,24.80
2023-06-10T13:27:43.690Z,24.48
2023-06-10T13:30:12.071Z,24.70
2023-06-10T13:32:39.653Z,25.03
2023-06-10T13:35:07.624Z,24.92
2023-06-10T13:37:35.299Z,24.76
2023-06-10T13:40:04.258Z,24.86
2023-06-10T13:42:31.627Z,25.01
2023-06-10T13:44:58.583Z,25.01
2023-06-10T13:47:26.701Z,25.11
2023-06-10T13:49:53.733Z,25.37
2023-06-10T13:52:20.771Z,25.30
2023-06-10T13:54:47.640Z,25.17
2023-06-10T13:57:14.591Z,24.81
2023-06-10T13:59:41.605Z,25.13
2023-06-10T14:02:08.694Z,25.34
2023-06-10T14:04:35.781Z,25.49
2023-06-10T14:07:02.642Z,25.83
2023-06-10T14:09:29.847Z,25.56
2023-06-10T14:11:56.762Z,25.42
2023-06-10T14:14:24.342Z,25.72
2023-06-10T14:16:51.491Z,25.74
2023-06-10T14:19:18.729Z,25.84
2023-06-10T14:21:45.850Z,25.70
2023-06-10T14:24:12.844Z,25.36
2023-06-10T14:26:39.874Z,25.61
2023-06-10T14:29:08.072Z,25.77
2023-06-10T14:31:35.149Z,25.78
2023-06-10T14:34:02.079Z,25.77
2023-06-10T14:36:29.003Z,26.03
2023-06-10T14:38:56.277Z,25.97
2023-06-10T14:41:23.529Z,26.09
2023-06-10T14:43:50.512Z,26.05
2023-06-10T14:46:17.674Z,25.86
2023-06-10T14:48:44.790Z,25.67
2023-06-10T14:51:11.678Z,25.91
2023-06-10T14:53:39.002Z,26.00
2023-06-10T14:56:06.360Z,26.05
2023-06-10T14:58:33.172Z,26.11
2023-06-10T15:01:00.557Z,26.14
2023-06-10T15:03:27.992Z,26.34
2023-06-10T15:05:54.863Z,26.04
2023-06-10T15:08:21.762Z,25.87
2023-06-10T15:10:49.819Z,26.36
2023-06-10T15:13:16.704Z,26.16
2023-06-10T15:15:43.668Z,25.76
2023-06-10T15:18:10.872Z,25.70
2023-06-10T15:20:38.521Z,25.39
2023-06-10T15:23:05.574Z,25.54
2023-06-10T15:25:32.689Z,25.60
2023-06-10T15:27:59.687Z,25.27
2023-06-10T15:30:26.911Z,25.13
2023-06-10T15:32:54.108Z,25.05
2023-06-10T15:35:21.320Z,25.25
2023-06-10T15:37:48.632Z,25.28
2023-06-10T15:40:16.254Z,25.80
2023-06-10T15:42:43.236Z,25.84
2023-06-10T15:45:10.921Z,26.11
2023-06-10T15:47:38.117Z,26.15
2023-06-10T15:50:05.688Z,26.21
2023-06-10T15:52:32.718Z,25.91
2023-06-10T15:54:59.697Z,25.74
2023-06-10T15:57:27.345Z,25.51
2023-06-10T15:59:55.078Z,25.09
2023-06-10T16:02:22.401Z,25.09
2023-06-10T16:04:49.886Z,25.26
2023-06-10T16:07:16.795Z,25.43
2023-06-10T16:09:43.819Z,25.32
2023-06-10T16:12:11.384Z,25.35
2023-06-10T16:14:38.366Z,25.29
2023-06-10T16:17:05.726Z,25.31
2023-06-10T16:19:32.939Z,25.50
2023-06-10T16:22:00.046Z,25.72
2023-06-10T16:24:27.079Z,25.82
2023-06-10T16:26:54.127Z,26.41
2023-06-10T16:29:21.063Z,28.53
2023-06-10T16:31:49.445Z,31.60
2023-06-10T16:34:17.800Z,32.22
2023-06-10T16:36:45.218Z,33.69
2023-06-10T16:39:12.112Z,34.19
2023-06-10T16:41:40.137Z,34.63
2023-06-10T16:44:07.085Z,34.06
2023-06-10T16:46:34.015Z,35.57
2023-06-10T16:49:00.975Z,36.11
2023-06-10T16:51:28.029Z,35.45
2023-06-10T16:53:54.942Z,35.85
2023-06-10T16:56:22.594Z,35.75
2023-06-10T16:58:49.985Z,35.16
2023-06-10T17:01:17.438Z,35.26
2023-06-10T17:03:44.427Z,35.67
2023-06-10T17:06:11.778Z,35.50
2023-06-10T17:08:38.634Z,33.62
2023-06-10T17:11:05.588Z,31.40
2023-06-10T17:13:32.800Z,30.00
2023-06-10T17:15:59.732Z,29.05
2023-06-10T17:18:26.722Z,28.08
2023-06-10T17:20:53.686Z,27.35
2023-06-10T17:23:20.731Z,26.72
2023-06-10T17:25:47.622Z,27.09
2023-06-10T17:28:14.586Z,26.37
2023-06-10T17:30:41.590Z,25.83
2023-06-10T17:33:08.658Z,25.44
2023-06-10T17:35:35.787Z,25.23
2023-06-10T17:38:02.695Z,25.16
2023-06-10T17:40:29.645Z,24.89
2023-06-10T17:42:56.724Z,25.00
2023-06-10T17:45:23.646Z,25.04
2023-06-10T17:47:50.692Z,25.03
2023-06-10T17:50:19.957Z,24.88
2023-06-10T17:52:47.232Z,24.64
2023-06-10T17:55:14.228Z,24.45
2023-06-10T17:57:41.307Z,24.26
2023-06-10T18:00:08.893Z,24.13
2023-06-10T18:02:36.499Z,24.15
2023-06-10T18:05:03.949Z,24.03
2023-06-10T18:07:31.468Z,24.01
2023-06-10T18:09:58.908Z,23.86
2023-06-10T18:12:26.326Z,23.76
2023-06-10T18:14:53.257Z,23.70
2023-06-10T18:17:20.202Z,23.41
2023-06-10T18:19:47.212Z,23.32
2023-06-10T18:22:14.208Z,23.29
2023-06-10T18:24:41.118Z,23.39
2023-06-10T18:27:09.374Z,23.11
2023-06-10T18:29:36.308Z,22.95
2023-06-10T18:32:03.354Z,22.86
2023-06-10T18:34:30.574Z,22.78
2023-06-10T18:36:57.531Z,22.64
2023-06-10T18:39:24.500Z,22.64
2023-06-10T18:41:51.686Z,22.52
2023-06-10T18:44:18.767Z,22.15
2023-06-10T18:46:45.678Z,21.84
2023-06-10T18:49:12.717Z,21.65
2023-06-10T18:51:39.630Z,21.56
2023-06-10T18:54:06.634Z,21.44
2023-06-10T18:56:33.741Z,21.30
2023-06-10T18:59:00.950Z,21.23
2023-06-10T19:01:27.908Z,21.06
2023-06-10T19:03:54.987Z,20.94
2023-06-10T19:06:23.231Z,20.83
2023-06-10T19:08:50.205Z,20.69
2023-06-10T19:11:18.068Z,20.57
2023-06-10T19:13:45.357Z,20.52
2023-06-10T19:16:12.201Z,20.43
2023-06-10T19:18:39.540Z,20.31
2023-06-10T19:21:08.241Z,20.26
2023-06-10T19:23:37.056Z,20.18
2023-06-10T19:26:04.895Z,20.07
2023-06-10T19:28:31.841Z,19.99
2023-06-10T19:30:58.716Z,19.93
2023-06-10T19:33:25.865Z,19.83
2023-06-10T19:35:52.869Z,19.72
2023-06-10T19:38:20.482Z,19.63
2023-06-10T19:40:48.443Z,19.55
2023-06-10T19:43:15.759Z,19.46
2023-06-10T19:45:42.749Z,19.40
2023-06-10T19:48:11.723Z,19.35
2023-06-10T19:50:39.015Z,19.31
2023-06-10T19:53:05.899Z,19.22
2023-06-10T19:55:34.802Z,19.18
2023-06-10T19:58:03.738Z,19.12
2023-06-10T20:00:30.660Z,19.03
2023-06-10T20:02:57.782Z,18.96
2023-06-10T20:05:24.973Z,18.90
2023-06-10T20:07:51.964Z,18.83
2023-06-10T20:10:19.539Z,18.78
2023-06-10T20:12:46.646Z,18.71
2023-06-10T20:15:13.728Z,18.67
2023-06-10T20:17:41.071Z,18.59
2023-06-10T20:20:08.621Z,18.54
2023-06-10T20:22:35.590Z,18.48
2023-06-10T20:25:02.606Z,18.43
2023-06-10T20:27:29.689Z,18.37
2023-06-10T20:29:57.419Z,18.33
2023-06-10T20:32:24.769Z,18.27
2023-06-10T20:34:52.110Z,18.21
2023-06-10T20:37:19.118Z,18.16
2023-06-10T20:39:46.176Z,18.10
2023-06-10T20:42:16.007Z,18.06
2023-06-10T20:44:44.162Z,18.03
2023-06-10T20:47:11.302Z,17.99
2023-06-10T20:49:38.282Z,17.96
2023-06-10T20:52:05.313Z,17.94
2023-06-10T20:54:32.313Z,17.88
2023-06-10T20:56:59.240Z,17.86
2023-06-10T20:59:26.146Z,17.82
2023-06-10T21:01:53.240Z,17.77
2023-06-10T21:04:20.350Z,17.73
2023-06-10T21:06:47.297Z,17.70
2023-06-10T21:09:14.375Z,17.66
2023-06-10T21:11:41.537Z,17.62
2023-06-10T21:14:09.137Z,17.57
2023-06-10T21:16:36.562Z,17.55
2023-06-10T21:19:04.069Z,17.53
2023-06-10T21:21:31.259Z,17.49
2023-06-10T21:23:58.455Z,17.44
2023-06-10T21:26:26.222Z,17.42
2023-06-10T21:28:55.360Z,17.35
2023-06-10T21:31:22.647Z,17.33
2023-06-10T21:33:49.980Z,17.30
2023-06-10T21:36:19.127Z,17.29
2023-06-10T21:38:46.675Z,17.25
2023-06-10T21:41:13.627Z,17.20
2023-06-10T21:43:40.925Z,17.19
2023-06-10T21:46:08.133Z,17.16
2023-06-10T21:48:36.566Z,17.13
2023-06-10T21:51:03.554Z,17.11
2023-06-10T21:53:30.781Z,17.10
2023-06-10T21:55:57.671Z,17.07
2023-06-10T21:58:24.549Z,17.07
2023-06-10T22:00:51.976Z,17.08
2023-06-10T22:03:19.866Z,17.04
2023-06-10T22:05:47.384Z,17.01
2023-06-10T22:08:14.456Z,16.99
2023-06-10T22:10:42.019Z,16.99
2023-06-10T22:13:09.213Z,16.99
2023-06-10T22:15:36.313Z,16.97
2023-06-10T22:18:06.441Z,16.95
2023-06-10T22:20:33.495Z,16.94
2023-06-10T22:23:00.657Z,16.92
2023-06-10T22:25:27.580Z,16.90
2023-06-10T22:27:54.619Z,16.91
2023-06-10T22:30:21.743Z,16.87
2023-06-10T22:32:48.738Z,16.85
2023-06-10T22:35:16.112Z,16.86
2023-06-10T22:37:43.211Z,16.87
2023-06-10T22:40:10.457Z,16.86
2023-06-10T22:42:37.301Z,16.87
2023-06-10T22:45:05.303Z,16.84
2023-06-10T22:47:32.338Z,16.82
2023-06-10T22:49:59.598Z,16.82
2023-06-10T22:52:26.637Z,16.85
2023-06-10T22:54:53.458Z,16.85
2023-06-10T22:57:20.469Z,16.82
2023-06-10T22:59:47.789Z,16.81
2023-06-10T23:02:14.980Z,16.80
2023-06-10T23:04:42.072Z,16.85
2023-06-10T23:07:10.534Z,16.89
2023-06-10T23:09:37.513Z,16.90
2023-06-10T23:12:04.775Z,16.91
2023-06-10T23:14:31.932Z,16.94
2023-06-10T23:16:58.959Z,16.97
2023-06-10T23:19:28.048Z,16.95
2023-06-10T23:21:57.279Z,16.98
2023-06-10T23:24:30.159Z,16.96
2023-06-10T23:26:59.442Z,16.96
2023-06-10T23:29:27.117Z,17.01
2023-06-10T23:31:54.943Z,17.00
2023-06-10T23:34:22.536Z,17.01
2023-06-10T23:36:49.938Z,17.01
2023-06-10T23:39:17.378Z,17.06
2023-06-10T23:41:46.350Z,17.05
2023-06-10T23:44:14.103Z,17.04
2023-06-10T23:46:41.268Z,17.04
2023-06-10T23:49:10.277Z,17.04
2023-06-10T23:51:38.472Z,17.10
2023-06-10T23:54:06.741Z,17.11
2023-06-10T23:56:33.964Z,17.13
2023-06-10T23:59:01.128Z,17.14
